Terminal Aerodrome Forecast
Issued by NWS Twin Cities, MN

Home | Current Version | Previous Version | Graphics & Text | Print | Product List | Glossary On
Versions: 1 2 3 4 5 6 7 8 9 10 11 12 13 14 15 16 17 18 19 20 21 22 23 24 25 26
000
FTUS43 KMPX 220200 AAA
TAFMSP
TAF AMD
KMSP 220259Z 2203/2306 15008KT 6SM -RA BR OVC010
     FM220600 14011KT 1 1/2SM -DZ BR OVC003
     FM221500 12012KT 1 1/2SM -RA OVC005
     FM222100 11011KT 3SM -RASN OVC007
     FM230100 08009KT 1SM -SN OVC006=

USA.gov is the U.S. government's official web portal to all federal, state and local government web resources and services.